createdAt,value
2023-01-09T00:01:48.555Z,150116.41
2023-01-09T00:04:14.560Z,150100.03
2023-01-09T00:06:42.585Z,150071.00
2023-01-09T00:09:09.411Z,150079.88
2023-01-09T00:11:35.920Z,150079.88
2023-01-09T00:14:02.513Z,150052.09
2023-01-09T00:16:28.336Z,150053.38
2023-01-09T00:18:54.245Z,150069.75
2023-01-09T00:21:20.149Z,150071.00
2023-01-09T00:23:46.434Z,150082.38
2023-01-09T00:26:17.838Z,150060.94
2023-01-09T00:28:45.885Z,150063.47
2023-01-09T00:31:12.567Z,150055.88
2023-01-09T00:33:41.992Z,150010.53
2023-01-09T00:36:08.400Z,150036.97
2023-01-09T00:38:36.053Z,150015.56
2023-01-09T00:41:03.754Z,150000.41
2023-01-09T00:43:34.742Z,149981.53
2023-01-09T00:46:03.867Z,150006.75
2023-01-09T00:48:29.765Z,149997.91
2023-01-09T00:50:58.781Z,149986.59
2023-01-09T00:53:28.238Z,149973.97
2023-01-09T00:55:58.382Z,149951.31
2023-01-09T00:58:24.356Z,149971.47
2023-01-09T01:00:50.253Z,149955.06
2023-01-09T01:03:16.240Z,149946.22
2023-01-09T01:06:00.605Z,149951.31
2023-01-09T01:08:26.509Z,149914.75
2023-01-09T01:10:53.259Z,149907.19
2023-01-09T01:13:19.203Z,149936.19
2023-01-09T01:15:45.866Z,149905.91
2023-01-09T01:18:13.047Z,149863.09
2023-01-09T01:20:41.296Z,149884.50
2023-01-09T01:23:07.274Z,149894.56
2023-01-09T01:25:44.116Z,149879.47
2023-01-09T01:28:10.052Z,149950.06
2023-01-09T01:30:40.965Z,149951.31
2023-01-09T01:33:07.109Z,149926.06
2023-01-09T01:35:33.184Z,149931.09
2023-01-09T01:37:59.077Z,149934.91
2023-01-09T01:40:25.600Z,149908.44
2023-01-09T01:42:53.585Z,149912.19
2023-01-09T01:45:28.658Z,149927.31
2023-01-09T01:48:03.543Z,149931.09
2023-01-09T01:50:35.952Z,149938.69
2023-01-09T01:53:15.680Z,149931.09
2023-01-09T01:55:52.131Z,149939.94
2023-01-09T01:58:19.179Z,149985.28
2023-01-09T02:00:46.924Z,149972.72
2023-01-09T02:03:20.865Z,149976.50
2023-01-09T02:05:46.739Z,150002.94
2023-01-09T02:08:12.964Z,150005.50
2023-01-09T02:10:40.058Z,150035.72
2023-01-09T02:13:08.078Z,149966.38
2023-01-09T02:15:54.170Z,150025.66
2023-01-09T02:18:44.233Z,149967.66
2023-01-09T02:21:36.108Z,149987.84
2023-01-09T02:24:39.577Z,149948.75
2023-01-09T02:27:40.533Z,149980.25
2023-01-09T02:30:33.227Z,149990.38
2023-01-09T02:33:34.532Z,150005.50
2023-01-09T02:36:18.769Z,149996.66
2023-01-09T02:39:15.283Z,149999.16
2023-01-09T02:41:51.823Z,150005.50
2023-01-09T02:44:27.437Z,150026.91
2023-01-09T02:47:07.303Z,150011.78
2023-01-09T02:49:38.997Z,150010.53
2023-01-09T02:52:24.517Z,150005.50
2023-01-09T02:55:08.613Z,149995.41
2023-01-09T02:58:04.372Z,150011.78
2023-01-09T03:00:57.726Z,149999.16
2023-01-09T03:03:40.077Z,150018.06
2023-01-09T03:06:11.079Z,149995.41
2023-01-09T03:08:47.238Z,149995.41
2023-01-09T03:11:13.143Z,150009.28
2023-01-09T03:13:55.252Z,150013.03
2023-01-09T03:16:26.658Z,149984.03
2023-01-09T03:18:55.281Z,149990.38
2023-01-09T03:21:22.712Z,149982.78
2023-01-09T03:23:54.658Z,149968.94
2023-01-09T03:26:20.550Z,149980.25
2023-01-09T03:28:47.128Z,149984.03
2023-01-09T03:31:13.740Z,149979.00
2023-01-09T03:33:39.817Z,149991.63
2023-01-09T03:36:06.113Z,149982.78
2023-01-09T03:38:32.791Z,149971.47
2023-01-09T03:40:58.677Z,149971.47
2023-01-09T03:43:24.945Z,149980.25
2023-01-09T03:45:50.829Z,150016.81
2023-01-09T03:48:16.871Z,149982.78
2023-01-09T03:50:45.182Z,149980.25
2023-01-09T03:53:12.651Z,149967.66
2023-01-09T03:55:50.437Z,149950.06
2023-01-09T03:58:17.318Z,149981.53
2023-01-09T04:00:51.551Z,149996.66
2023-01-09T04:03:20.179Z,149995.41
2023-01-09T04:05:48.877Z,149995.41
2023-01-09T04:08:15.320Z,149992.88
2023-01-09T04:10:47.832Z,150009.28
2023-01-09T04:13:14.035Z,149991.63
2023-01-09T04:15:39.998Z,150015.56
2023-01-09T04:18:06.043Z,149990.38
2023-01-09T04:20:32.081Z,149985.28
2023-01-09T04:22:59.061Z,149918.53
2023-01-09T04:25:26.022Z,149907.19
2023-01-09T04:27:52.471Z,149913.47
2023-01-09T04:30:18.717Z,149916.03
2023-01-09T04:32:44.567Z,149953.81
2023-01-09T04:35:10.411Z,149939.94
2023-01-09T04:37:36.329Z,149893.31
2023-01-09T04:40:08.192Z,149897.13
2023-01-09T04:42:34.048Z,149918.53
2023-01-09T04:44:59.875Z,149950.06
2023-01-09T04:47:25.712Z,149941.19
2023-01-09T04:49:51.622Z,149922.31
2023-01-09T04:52:17.447Z,149918.53
2023-01-09T04:54:43.323Z,149931.09
2023-01-09T04:57:09.158Z,149926.06
2023-01-09T04:59:35.090Z,149922.31
2023-01-09T05:02:01.326Z,149905.91
2023-01-09T05:04:27.324Z,149922.31
2023-01-09T05:06:53.286Z,149938.69
2023-01-09T05:09:19.467Z,149923.56
2023-01-09T05:11:45.311Z,149927.31
2023-01-09T05:14:12.179Z,149921.03
2023-01-09T05:16:38.085Z,149892.03
2023-01-09T05:19:04.098Z,149849.22
2023-01-09T05:21:29.950Z,149835.34
2023-01-09T05:23:55.886Z,149827.81
2023-01-09T05:26:25.390Z,149820.22
2023-01-09T05:28:52.345Z,149797.56
2023-01-09T05:31:19.010Z,149787.47
2023-01-09T05:33:45.396Z,149752.22
2023-01-09T05:36:11.546Z,149714.44
2023-01-09T05:38:37.987Z,149722.03
2023-01-09T05:41:04.011Z,149738.41
2023-01-09T05:43:30.026Z,149753.50
2023-01-09T05:45:56.196Z,149730.81
2023-01-09T05:48:22.236Z,149720.75
2023-01-09T05:50:48.056Z,149715.69
2023-01-09T05:53:14.034Z,149743.41
2023-01-09T05:55:39.856Z,149763.56
2023-01-09T05:58:05.703Z,149733.31
2023-01-09T06:00:31.618Z,149727.03
2023-01-09T06:02:58.071Z,149738.41
2023-01-09T06:05:24.024Z,149764.81
2023-01-09T06:07:49.879Z,149742.16
2023-01-09T06:10:16.120Z,149716.94
2023-01-09T06:12:45.714Z,149703.13
2023-01-09T06:15:11.543Z,149745.94
2023-01-09T06:17:37.420Z,149764.81
2023-01-09T06:20:03.839Z,149740.91
2023-01-09T06:22:29.697Z,149756.03
2023-01-09T06:24:55.532Z,149783.72
2023-01-09T06:27:21.429Z,149701.88
2023-01-09T06:29:47.226Z,149732.06
2023-01-09T06:32:13.044Z,149727.03
2023-01-09T06:34:38.850Z,149754.78
2023-01-09T06:37:04.608Z,149727.03
2023-01-09T06:39:30.479Z,149715.69
2023-01-09T06:41:56.263Z,149752.22
2023-01-09T06:44:22.090Z,149750.97
2023-01-09T06:46:47.967Z,149764.81
2023-01-09T06:49:13.859Z,149763.56
2023-01-09T06:51:39.677Z,149743.41
2023-01-09T06:54:05.576Z,149742.16
2023-01-09T06:56:31.551Z,149752.22
2023-01-09T06:58:57.541Z,149725.78
2023-01-09T07:01:23.542Z,149763.56
2023-01-09T07:03:49.521Z,149750.97
2023-01-09T07:06:15.426Z,149725.78
2023-01-09T07:08:41.255Z,149722.03
2023-01-09T07:11:07.061Z,149708.16
2023-01-09T07:13:32.916Z,149715.69
2023-01-09T07:15:58.734Z,149700.63
2023-01-09T07:18:24.685Z,149683.00
2023-01-09T07:20:50.756Z,149701.88
2023-01-09T07:23:18.119Z,149701.88
2023-01-09T07:25:44.434Z,149708.16
2023-01-09T07:28:10.429Z,149700.63
2023-01-09T07:30:36.332Z,149706.91
2023-01-09T07:33:04.036Z,149699.38
2023-01-09T07:35:29.991Z,149715.69
2023-01-09T07:37:55.868Z,149725.78
2023-01-09T07:40:22.116Z,149734.59
2023-01-09T07:42:47.933Z,149734.59
2023-01-09T07:45:13.841Z,149744.69
2023-01-09T07:47:41.296Z,149724.53
2023-01-09T07:50:08.250Z,149719.50
2023-01-09T07:52:34.120Z,149718.25
2023-01-09T07:55:00.001Z,149744.69
2023-01-09T07:57:25.882Z,149772.41
2023-01-09T07:59:51.640Z,149810.19
2023-01-09T08:02:17.471Z,149778.69
2023-01-09T08:04:43.461Z,149744.69
2023-01-09T08:07:09.287Z,149748.44
2023-01-09T08:09:35.613Z,149745.94
2023-01-09T08:12:03.440Z,149763.56
2023-01-09T08:14:29.631Z,149748.44
2023-01-09T08:16:55.525Z,149754.78
2023-01-09T08:19:21.423Z,149763.56
2023-01-09T08:21:47.233Z,149752.22
2023-01-09T08:24:13.165Z,149745.94
2023-01-09T08:26:39.124Z,149792.56
2023-01-09T08:29:05.846Z,149778.69
2023-01-09T08:31:31.699Z,149779.94
2023-01-09T08:33:57.562Z,149781.19
2023-01-09T08:36:23.488Z,149779.94
2023-01-09T08:38:49.237Z,149778.69
2023-01-09T08:41:34.096Z,149776.19
2023-01-09T08:44:18.231Z,149778.69
2023-01-09T08:47:02.600Z,149763.56
2023-01-09T08:49:28.451Z,149776.19
2023-01-09T08:51:54.326Z,149793.81
2023-01-09T08:54:20.255Z,149797.56
2023-01-09T08:56:46.221Z,149800.09
2023-01-09T08:59:13.131Z,149801.34
2023-01-09T09:01:39.005Z,149803.84
2023-01-09T09:04:05.241Z,149851.75
2023-01-09T09:06:32.410Z,149832.84
2023-01-09T09:09:02.432Z,149817.72
2023-01-09T09:11:29.908Z,149822.75
2023-01-09T09:13:56.566Z,149865.63
2023-01-09T09:16:24.421Z,149887.03
2023-01-09T09:18:50.529Z,149825.31
2023-01-09T09:21:16.834Z,149834.09
2023-01-09T09:23:43.639Z,149825.31
2023-01-09T09:26:10.153Z,149816.47
2023-01-09T09:28:36.019Z,149812.69
2023-01-09T09:31:05.373Z,149815.22
2023-01-09T09:33:31.302Z,149832.84
2023-01-09T09:36:00.275Z,149834.09
2023-01-09T09:38:26.216Z,149841.66
2023-01-09T09:41:38.679Z,149839.13
2023-01-09T09:44:27.705Z,149858.03
2023-01-09T09:47:02.620Z,149882.00
2023-01-09T09:49:36.945Z,149888.28
2023-01-09T09:52:02.707Z,149873.16
2023-01-09T09:54:40.266Z,149916.03
2023-01-09T09:57:14.401Z,149871.91
2023-01-09T09:59:42.349Z,149871.91
2023-01-09T10:02:21.200Z,149842.94
2023-01-09T10:04:52.012Z,149853.00
2023-01-09T10:07:30.382Z,149855.50
2023-01-09T10:10:00.349Z,149859.28
2023-01-09T10:12:50.034Z,149844.22
2023-01-09T10:15:23.643Z,149816.47
2023-01-09T10:18:02.123Z,149871.91
2023-01-09T10:20:48.786Z,149859.28
2023-01-09T10:23:42.312Z,149898.38
2023-01-09T10:26:08.445Z,149889.53
2023-01-09T10:28:49.492Z,149903.41
2023-01-09T10:31:39.917Z,149902.16
2023-01-09T10:34:29.996Z,149874.41
2023-01-09T10:37:13.404Z,149884.50
2023-01-09T10:39:51.749Z,149897.13
2023-01-09T10:42:42.056Z,149927.31
2023-01-09T10:45:32.976Z,149961.38
2023-01-09T10:48:17.044Z,149950.06
2023-01-09T10:50:45.322Z,149942.47
2023-01-09T10:53:22.671Z,149958.84
2023-01-09T10:55:53.986Z,149938.69
2023-01-09T10:58:22.892Z,149947.47
2023-01-09T11:00:50.248Z,149952.56
2023-01-09T11:03:19.683Z,149956.34
2023-01-09T11:05:53.881Z,149958.84
2023-01-09T11:08:34.558Z,149980.25
2023-01-09T11:11:02.186Z,149965.13
2023-01-09T11:13:31.804Z,149967.66
2023-01-09T11:16:05.078Z,149970.22
2023-01-09T11:18:31.960Z,149963.88
2023-01-09T11:21:19.500Z,149932.41
2023-01-09T11:23:45.358Z,149914.75
2023-01-09T11:26:25.939Z,149952.56
2023-01-09T11:29:13.116Z,149979.00
2023-01-09T11:31:40.904Z,149955.06
2023-01-09T11:34:16.457Z,149936.19
2023-01-09T11:36:42.906Z,149972.72
2023-01-09T11:39:20.577Z,150008.00
2023-01-09T11:41:53.294Z,149990.38
2023-01-09T11:44:19.351Z,149965.13
2023-01-09T11:46:45.962Z,149972.72
2023-01-09T11:49:11.802Z,149990.38
2023-01-09T11:51:37.651Z,150000.41
2023-01-09T11:54:15.667Z,150000.41
2023-01-09T11:56:42.564Z,150001.69
2023-01-09T11:59:24.148Z,150009.28
2023-01-09T12:02:35.967Z,149997.91
2023-01-09T12:05:44.694Z,149965.13
2023-01-09T12:08:23.279Z,149966.38
2023-01-09T12:11:20.205Z,149972.72
2023-01-09T12:14:13.585Z,149950.06
2023-01-09T12:17:16.450Z,150013.03
2023-01-09T12:19:57.206Z,149994.13
2023-01-09T12:22:43.645Z,149982.78
2023-01-09T12:25:28.595Z,149981.53
2023-01-09T12:28:18.926Z,149936.19
2023-01-09T12:30:47.820Z,149942.47
2023-01-09T12:33:37.254Z,149956.34
2023-01-09T12:36:22.485Z,149976.50
2023-01-09T12:39:12.379Z,149968.94
2023-01-09T12:41:47.141Z,149971.47
2023-01-09T12:44:35.416Z,149968.94
2023-01-09T12:47:37.732Z,149979.00
2023-01-09T12:50:29.187Z,149991.63
2023-01-09T12:53:16.349Z,150001.69
2023-01-09T12:55:48.823Z,150010.53
2023-01-09T12:58:33.023Z,149997.91
2023-01-09T13:01:04.351Z,149967.66
2023-01-09T13:03:45.358Z,149980.25
2023-01-09T13:06:17.835Z,149999.16
2023-01-09T13:08:50.517Z,149972.72
2023-01-09T13:11:38.167Z,149963.88
2023-01-09T13:14:14.172Z,149973.97
2023-01-09T13:16:46.067Z,149971.47
2023-01-09T13:19:22.711Z,149984.03
2023-01-09T13:21:49.653Z,150006.75
2023-01-09T13:24:18.521Z,150013.03
2023-01-09T13:26:55.890Z,150001.69
2023-01-09T13:29:31.218Z,150020.59
2023-01-09T13:32:15.246Z,149962.63
2023-01-09T13:34:45.771Z,150001.69
2023-01-09T13:37:36.048Z,149985.28
2023-01-09T13:40:06.308Z,150000.41
2023-01-09T13:42:35.492Z,149966.38
2023-01-09T13:45:18.169Z,149942.47
2023-01-09T13:47:44.322Z,149958.84
2023-01-09T13:50:10.197Z,149958.84
2023-01-09T13:52:41.418Z,149970.22
2023-01-09T13:55:16.168Z,149933.66
2023-01-09T13:58:01.423Z,149987.84
2023-01-09T14:00:36.106Z,149963.88
2023-01-09T14:03:07.982Z,149953.81
2023-01-09T14:05:33.739Z,149966.38
2023-01-09T14:08:12.614Z,149982.78
2023-01-09T14:10:44.229Z,149986.59
2023-01-09T14:13:25.645Z,149972.72
2023-01-09T14:16:01.053Z,149977.75
2023-01-09T14:18:33.658Z,149943.72
2023-01-09T14:23:52.872Z,149892.03
2023-01-09T14:26:40.412Z,149858.03
2023-01-09T14:29:39.815Z,149885.75
2023-01-09T14:32:25.750Z,149895.81
2023-01-09T14:34:58.211Z,149884.50
2023-01-09T14:37:27.382Z,149873.16
2023-01-09T14:39:54.878Z,149863.09
2023-01-09T14:42:28.182Z,149882.00
2023-01-09T14:45:05.867Z,149894.56
2023-01-09T14:47:38.724Z,149871.91
2023-01-09T14:50:21.331Z,149873.16
2023-01-09T14:53:04.871Z,149898.38
2023-01-09T14:55:57.048Z,149845.47
2023-01-09T14:58:31.228Z,149841.66
2023-01-09T15:01:00.010Z,149876.91
2023-01-09T15:03:32.681Z,149888.28
2023-01-09T15:05:59.763Z,149870.63
2023-01-09T15:08:27.242Z,149869.38
2023-01-09T15:10:55.213Z,149845.47
2023-01-09T15:13:34.388Z,149868.13
2023-01-09T15:16:00.975Z,149855.50
2023-01-09T15:18:30.449Z,149861.84
2023-01-09T15:21:00.629Z,149870.63
2023-01-09T15:23:29.534Z,149853.00
2023-01-09T15:26:24.333Z,149880.75
2023-01-09T15:28:52.972Z,149882.00
2023-01-09T15:31:23.261Z,149854.25
2023-01-09T15:33:51.983Z,149884.50
2023-01-09T15:36:30.115Z,149897.13
2023-01-09T15:38:56.287Z,149918.53
2023-01-09T15:41:45.740Z,149869.38
2023-01-09T15:44:15.710Z,149846.72
2023-01-09T15:46:45.507Z,149851.75
2023-01-09T15:49:13.346Z,149855.50
2023-01-09T15:51:43.151Z,149858.03
2023-01-09T15:54:14.639Z,149806.38
2023-01-09T15:56:43.322Z,149834.09
2023-01-09T15:59:24.604Z,149839.13
2023-01-09T16:02:18.347Z,149870.63
2023-01-09T16:04:44.811Z,149861.84
2023-01-09T16:07:14.755Z,149851.75
2023-01-09T16:09:51.881Z,149847.97
2023-01-09T16:12:21.170Z,149876.91
2023-01-09T16:14:51.815Z,149854.25
2023-01-09T16:17:23.078Z,149818.97
2023-01-09T16:19:54.715Z,149825.31
2023-01-09T16:22:25.148Z,149788.78
2023-01-09T16:24:53.071Z,149825.31
2023-01-09T16:27:23.132Z,149816.47
2023-01-09T16:29:55.300Z,149827.81
2023-01-09T16:32:47.157Z,149806.38
2023-01-09T16:35:19.293Z,149778.69
2023-01-09T16:37:45.880Z,149782.44
2023-01-09T16:40:17.843Z,149808.94
2023-01-09T16:42:59.779Z,149807.69
2023-01-09T16:45:32.748Z,149818.97
2023-01-09T16:47:59.772Z,149832.84
2023-01-09T16:50:25.805Z,149827.81
2023-01-09T16:52:52.317Z,149831.59
2023-01-09T16:55:18.274Z,149841.66
2023-01-09T16:57:44.353Z,149827.81
2023-01-09T17:00:16.546Z,149827.81
2023-01-09T17:02:42.574Z,149811.44
2023-01-09T17:05:08.712Z,149822.75
2023-01-09T17:07:34.747Z,149846.72
2023-01-09T17:10:01.534Z,149841.66
2023-01-09T17:12:27.438Z,149827.81
2023-01-09T17:14:53.615Z,149830.34
2023-01-09T17:17:20.822Z,149825.31
2023-01-09T17:19:47.028Z,149849.22
2023-01-09T17:22:13.710Z,149855.50
2023-01-09T17:24:57.841Z,149851.75
2023-01-09T17:27:52.521Z,149846.72
2023-01-09T17:30:19.897Z,149841.66
2023-01-09T17:32:47.313Z,149844.22
2023-01-09T17:35:15.035Z,149825.31
2023-01-09T17:37:41.355Z,149815.22
2023-01-09T17:40:22.368Z,149825.31
2023-01-09T17:42:48.415Z,149807.69
2023-01-09T17:45:14.721Z,149772.41
2023-01-09T17:47:40.720Z,149776.19
2023-01-09T17:50:07.376Z,149802.59
2023-01-09T17:52:33.347Z,149759.78
2023-01-09T17:55:04.461Z,149740.91
2023-01-09T17:57:33.375Z,149758.53
2023-01-09T17:59:59.417Z,149749.69
2023-01-09T18:02:25.377Z,149739.66
2023-01-09T18:04:51.365Z,149701.88
2023-01-09T18:07:17.858Z,149691.78
2023-01-09T18:09:44.315Z,149718.25
2023-01-09T18:12:10.440Z,149748.44
2023-01-09T18:14:40.599Z,149740.91
2023-01-09T18:17:06.792Z,149742.16
2023-01-09T18:19:33.162Z,149711.94
2023-01-09T18:21:59.276Z,149732.06
2023-01-09T18:24:25.357Z,149720.75
2023-01-09T18:26:51.574Z,149748.44
2023-01-09T18:29:18.668Z,149781.19
2023-01-09T18:31:44.779Z,149792.56
2023-01-09T18:34:10.699Z,149802.59
2023-01-09T18:36:36.662Z,149764.81
2023-01-09T18:39:05.080Z,149762.31
2023-01-09T18:41:31.658Z,149793.81
2023-01-09T18:43:59.999Z,149808.94
2023-01-09T18:46:29.915Z,149811.44
2023-01-09T18:48:58.224Z,149810.19
2023-01-09T18:51:26.018Z,149842.94
2023-01-09T18:53:52.366Z,149816.47
2023-01-09T18:56:19.385Z,149805.13
2023-01-09T18:58:46.421Z,149818.97
2023-01-09T19:01:13.736Z,149830.34
2023-01-09T19:03:40.135Z,149832.84
2023-01-09T19:06:06.956Z,149811.44
2023-01-09T19:08:34.540Z,149793.81
2023-01-09T19:11:00.865Z,149801.34
2023-01-09T19:13:31.938Z,149790.03
2023-01-09T19:15:59.496Z,149761.06
2023-01-09T19:18:26.478Z,149739.66
2023-01-09T19:20:53.987Z,149742.16
2023-01-09T19:23:23.808Z,149727.03
2023-01-09T19:25:51.275Z,149783.72
2023-01-09T19:28:17.597Z,149757.28
2023-01-09T19:30:44.507Z,149779.94
2023-01-09T19:33:11.140Z,149748.44
2023-01-09T19:35:37.365Z,149733.31
2023-01-09T19:38:03.585Z,149718.25
2023-01-09T19:40:29.486Z,149730.81
2023-01-09T19:42:56.839Z,149749.69
2023-01-09T19:45:23.036Z,149727.03
2023-01-09T19:47:49.272Z,149720.75
2023-01-09T19:50:17.171Z,149753.50
2023-01-09T19:52:44.035Z,149783.72
2023-01-09T19:55:13.040Z,149788.78
2023-01-09T19:57:40.318Z,149806.38
2023-01-09T20:00:06.939Z,149774.91
2023-01-09T20:02:33.156Z,149733.31
2023-01-09T20:04:59.214Z,149767.34
2023-01-09T20:07:25.143Z,149777.44
2023-01-09T20:09:51.075Z,149771.16
2023-01-09T20:12:17.094Z,149750.97
2023-01-09T20:14:44.555Z,149743.41
2023-01-09T20:17:11.302Z,149744.69
2023-01-09T20:19:37.239Z,149745.94
2023-01-09T20:22:03.226Z,149788.78
2023-01-09T20:24:29.237Z,149784.97
2023-01-09T20:26:55.153Z,149797.56
2023-01-09T20:29:21.421Z,149790.03
2023-01-09T20:31:47.565Z,149791.28
2023-01-09T20:34:14.636Z,149783.72
2023-01-09T20:36:40.732Z,149744.69
2023-01-09T20:39:10.113Z,149758.53
2023-01-09T20:41:36.237Z,149733.31
2023-01-09T20:44:07.303Z,149756.03
2023-01-09T20:46:37.147Z,149768.59
2023-01-09T20:49:06.382Z,149761.06
2023-01-09T20:51:36.730Z,149750.97
2023-01-09T20:54:03.051Z,149761.06
2023-01-09T20:56:30.885Z,149759.78
2023-01-09T20:58:58.166Z,149758.53
2023-01-09T21:01:24.714Z,149763.56
2023-01-09T21:03:51.640Z,149778.69
2023-01-09T21:06:19.415Z,149778.69
2023-01-09T21:08:46.425Z,149773.66
2023-01-09T21:11:13.961Z,149772.41
2023-01-09T21:13:40.280Z,149810.19
2023-01-09T21:16:09.913Z,149820.22
2023-01-09T21:18:36.493Z,149812.69
2023-01-09T21:21:08.838Z,149815.22
2023-01-09T21:23:35.226Z,149783.72
2023-01-09T21:26:01.509Z,149801.34
2023-01-09T21:28:30.899Z,149790.03
2023-01-09T21:30:56.908Z,149812.69
2023-01-09T21:33:22.839Z,149817.72
2023-01-09T21:35:56.540Z,149818.97
2023-01-09T21:38:23.848Z,149831.59
2023-01-09T21:40:51.363Z,149806.38
2023-01-09T21:43:44.068Z,149816.47
2023-01-09T21:46:31.175Z,149806.38
2023-01-09T21:48:57.404Z,149825.31
2023-01-09T21:51:23.433Z,149824.00
2023-01-09T21:53:49.255Z,149835.34
2023-01-09T21:56:15.190Z,149803.84
2023-01-09T21:58:43.762Z,149813.97
2023-01-09T22:01:09.821Z,149791.28
2023-01-09T22:03:35.967Z,149806.38
2023-01-09T22:06:05.755Z,149805.13
2023-01-09T22:08:31.850Z,149815.22
2023-01-09T22:10:59.538Z,149812.69
2023-01-09T22:13:28.882Z,149805.13
2023-01-09T22:15:58.511Z,149787.47
2023-01-09T22:18:24.658Z,149808.94
2023-01-09T22:20:50.477Z,149824.00
2023-01-09T22:23:16.330Z,149817.72
2023-01-09T22:25:42.295Z,149822.75
2023-01-09T22:28:11.213Z,149808.94
2023-01-09T22:30:40.819Z,149825.31
2023-01-09T22:33:10.024Z,149821.50
2023-01-09T22:35:40.375Z,149812.69
2023-01-09T22:38:07.182Z,149806.38
2023-01-09T22:40:33.165Z,149825.31
2023-01-09T22:42:59.195Z,149806.38
2023-01-09T22:45:25.015Z,149817.72
2023-01-09T22:47:50.971Z,149839.13
2023-01-09T22:50:17.058Z,149827.81
2023-01-09T22:52:42.923Z,149829.09
2023-01-09T22:55:09.246Z,149812.69
2023-01-09T22:57:35.164Z,149813.97
2023-01-09T23:00:01.507Z,149808.94
2023-01-09T23:02:27.504Z,149822.75
2023-01-09T23:04:57.719Z,149816.47
2023-01-09T23:07:24.332Z,149820.22
2023-01-09T23:09:50.317Z,149822.75
2023-01-09T23:12:16.342Z,149824.00
2023-01-09T23:14:42.231Z,149815.22
2023-01-09T23:17:10.184Z,149811.44
2023-01-09T23:19:36.957Z,149797.56
2023-01-09T23:22:03.827Z,149818.97
2023-01-09T23:24:30.690Z,149815.22
2023-01-09T23:26:56.680Z,149800.09
2023-01-09T23:29:24.462Z,149830.34
2023-01-09T23:31:52.924Z,149783.72
2023-01-09T23:34:25.742Z,149810.19
2023-01-09T23:36:53.485Z,149813.97
2023-01-09T23:39:19.717Z,149813.97
2023-01-09T23:42:04.200Z,149815.22
2023-01-09T23:44:30.200Z,149803.84
2023-01-09T23:46:56.441Z,149808.94
2023-01-09T23:49:22.273Z,149824.00
2023-01-09T23:51:48.099Z,149807.69
2023-01-09T23:54:15.531Z,149824.00
2023-01-09T23:56:41.421Z,149816.47
2023-01-09T23:59:10.796Z,149822.75
